Thursday, December 12, 2019, 4:47 PM EST
Back to Local

KHVN, Tweed-new Haven Airport

Location: East Haven, CT, United States Lat: 41.267
Local Time: 4:47 PM EST (21:47 GMT) Lon: -72.883
Time Zone: US/Eastern Elev: 13 ft

Show me the last for .
Show Decoded

2019-12-12 15:53 METAR KHVN 122053Z 00000KT 10SM CLR 01/M08 A3069 RMK AO2 SLP391 T00061083 $ =
2019-12-12 14:53 METAR KHVN 121953Z 00000KT 10SM CLR 02/M10 A3069 RMK AO2 SLP391 T00221100 $ =
2019-12-12 13:53 METAR KHVN 121853Z COR 03003KT 10SM BKN250 02/M10 A3068 RMK AO2 SLP388 T00171100
                 =
2019-12-12 12:53 METAR KHVN 121753Z 32007KT 10SM SCT250 02/M10 A3069 RMK AO2 SLP393 T00171100
                 10017 21033 58013 =
2019-12-12 11:53 METAR KHVN 121653Z 02008KT 10SM SCT250 01/M10 A3071 RMK AO2 SLP397 T00061100 =
2019-12-12 10:53 METAR KHVN 121553Z VRB05KT 10SM BKN250 00/M11 A3072 RMK AO2 SLP403 T00001111 =
2019-12-12 09:53 METAR KHVN 121453Z 32005KT 10SM CLR M01/M12 A3073 RMK AO2 SLP405 T10061117 51015
                 $ =
2019-12-12 08:53 METAR KHVN 121353Z VRB04KT 10SM CLR M02/M12 A3072 RMK AO2 SLP402 T10171117 $ =
2019-12-12 07:53 METAR KHVN 121253Z VRB03KT 10SM CLR M02/M12 A3071 RMK AO2 SLP397 T10221122 $ =
2019-12-12 06:53 METAR KHVN 121153Z 31005KT 10SM CLR M03/M12 A3069 RMK AO2 SLP391 70001 T10281122
                 10011 21028 53032 $ =
2019-12-12 05:53 METAR KHVN 121053Z 30006KT 10SM CLR M02/M13 A3065 RMK AO2 SLP379 T10221128 $ =
2019-12-12 04:53 METAR KHVN 120953Z AUTO 32005KT 10SM CLR M02/M12 A3062 RMK AO2 SLP368 T10171117
                 $ =
2019-12-12 03:53 METAR KHVN 120853Z AUTO 33006KT 10SM CLR M02/M11 A3059 RMK AO2 SLP359 T10171106
                 51044 $ =
2019-12-12 02:53 METAR KHVN 120753Z AUTO 32009KT 10SM CLR M01/M11 A3056 RMK AO2 SLP347 T10111106
                 $ =
2019-12-12 01:53 METAR KHVN 120653Z AUTO 33009KT 10SM CLR 00/M09 A3052 RMK AO2 SLP335 T00001094 $
                 =
2019-12-12 00:53 METAR KHVN 120553Z AUTO 32013G24KT 10SM CLR 01/M09 A3046 RMK AO2 SLP315
                 T00111089 10039 20006 51036 $ =
2019-12-11 23:53 METAR KHVN 120453Z AUTO 30007KT 10SM CLR 01/M08 A3043 RMK AO2 SLP305 T00111078
                 400721011 $ =
2019-12-11 22:53 METAR KHVN 120353Z AUTO 28007KT 250V310 10SM CLR 02/M07 A3040 RMK AO2 SLP294
                 T00171067 $ =
2019-12-11 21:53 METAR KHVN 120253Z 28009KT 10SM CLR 02/M06 A3036 RMK AO2 SLP279 T00171056 53015
                 =
2019-12-11 20:53 METAR KHVN 120153Z 28009G17KT 10SM CLR 03/M03 A3034 RMK AO2 SLP272 T00281033 =
2019-12-11 19:53 METAR KHVN 120053Z 25012G19KT 10SM CLR 03/M02 A3032 RMK AO2 SLP267 T00331022 =
2019-12-11 18:53 METAR KHVN 112353Z 24014G19KT 10SM CLR 04/M02 A3031 RMK AO2 SLP264 T00391017
                 10039 20017 53019 =
2019-12-11 17:53 METAR KHVN 112253Z 28005KT 10SM CLR 03/M02 A3030 RMK AO2 SLP258 T00281017 =
2019-12-11 16:53 METAR KHVN 112153Z 25008KT 10SM SCT025 03/M02 A3027 RMK AO2 SLP251 T00281022 =

Support USWX by starting your Amazon purchase here.